Time;durP1;ratioP1;P1;durP2;ratioP2;P2;SDS_P1;SDS_P2;PMS_P1;PMS_P2;Temp;Humidity;BMP_temperature;BMP_pressure;BME280_temperature;BME280_humidity;BME280_pressure;Samples;Min_cycle;Max_cycle;Signal;HPM_P1;HPM_P2
2022/02/12 00:00:39;;;;;;;53.00;32.03;;;;;;;1.21;100.00;99294.52;1630842;88;21075;-80
2022/02/12 00:03:05;;;;;;;55.03;32.03;;;;;;;1.12;100.00;99296.62;1630609;83;21006;-79
2022/02/12 00:05:32;;;;;;;56.23;33.50;;;;;;;1.04;100.00;99297.75;1732615;83;21045;-79
2022/02/12 00:07:59;;;;;;;52.80;32.97;;;;;;;0.97;100.00;99301.89;1732538;83;21006;-79
2022/02/12 00:10:28;;;;;;;56.57;32.20;;;;;;;0.90;100.00;99302.88;1732612;83;21018;-79
2022/02/12 00:12:55;;;;;;;50.00;30.27;;;;;;;0.82;100.00;99307.52;1732528;83;21002;-78
2022/02/12 00:15:22;;;;;;;47.53;30.07;;;;;;;0.78;100.00;99310.55;1732135;83;21058;-79
2022/02/12 00:17:51;;;;;;;50.80;29.47;;;;;;;0.71;100.00;99308.91;1732120;83;21136;-79
2022/02/12 00:20:18;;;;;;;51.50;31.00;;;;;;;0.67;100.00;99311.44;1732065;83;21039;-78
2022/02/12 00:22:45;;;;;;;51.00;30.70;;;;;;;0.60;100.00;99317.73;1732491;83;20971;-79
2022/02/12 00:25:12;;;;;;;50.77;30.93;;;;;;;0.54;100.00;99316.92;1732482;83;21054;-78
2022/02/12 00:27:38;;;;;;;47.50;29.03;;;;;;;0.48;100.00;99317.41;1732458;83;21003;-79
2022/02/12 00:30:07;;;;;;;46.57;28.03;;;;;;;0.42;100.00;99312.59;1732235;83;21054;-79
2022/02/12 00:32:35;;;;;;;42.57;27.17;;;;;;;0.36;100.00;99309.45;1732386;83;21043;-79
2022/02/12 00:35:02;;;;;;;44.60;27.30;;;;;;;0.36;100.00;99313.94;1732805;82;21030;-80
2022/02/12 00:37:30;;;;;;;44.40;25.73;;;;;;;0.34;100.00;99315.39;1732996;83;21042;-80
2022/02/12 00:39:59;;;;;;;43.83;26.93;;;;;;;0.32;100.00;99315.13;1733035;83;21030;-80
2022/02/12 00:42:26;;;;;;;44.20;26.60;;;;;;;0.29;100.00;99314.08;1694359;84;21022;-79
2022/02/12 00:44:53;;;;;;;43.43;27.00;;;;;;;0.25;100.00;99314.80;1694186;85;21003;-78
2022/02/12 00:47:20;;;;;;;45.17;27.13;;;;;;;0.22;100.00;99311.55;1693653;85;21035;-80
2022/02/12 00:49:48;;;;;;;44.67;26.47;;;;;;;0.18;100.00;99311.78;1693555;85;21159;-80
2022/02/12 00:52:17;;;;;;;41.03;24.13;;;;;;;0.17;100.00;99310.58;1693891;85;20992;-79
2022/02/12 00:54:44;;;;;;;46.40;26.87;;;;;;;0.16;100.00;99319.50;1693645;85;21058;-79
2022/02/12 00:57:11;;;;;;;46.80;25.80;;;;;;;0.16;100.00;99318.17;1693258;85;21559;-78
2022/02/12 00:59:39;;;;;;;42.90;25.20;;;;;;;0.14;100.00;99319.66;1693206;85;21054;-78
2022/02/12 01:02:05;;;;;;;40.93;24.87;;;;;;;0.12;100.00;99313.59;1693366;85;21002;-80
2022/02/12 01:04:32;;;;;;;42.40;25.03;;;;;;;0.08;100.00;99316.14;1693552;85;21055;-79
2022/02/12 01:07:00;;;;;;;43.40;26.27;;;;;;;0.06;100.00;99327.38;1693748;85;21010;-79
2022/02/12 01:09:26;;;;;;;45.20;25.63;;;;;;;0.04;100.00;99330.66;1693748;85;21100;-79
2022/02/12 01:11:53;;;;;;;47.67;26.13;;;;;;;0.02;100.00;99334.38;1694459;85;21007;-79
2022/02/12 01:14:20;;;;;;;47.40;26.43;;;;;;;-0.03;100.00;99331.61;1694465;85;21062;-79
2022/02/12 01:16:48;;;;;;;47.53;25.87;;;;;;;-0.03;100.00;99332.10;1694908;85;21062;-79
2022/02/12 01:19:16;;;;;;;45.17;25.93;;;;;;;-0.03;100.00;99336.93;1695119;85;21023;-78
2022/02/12 01:21:44;;;;;;;42.20;24.20;;;;;;;-0.03;100.00;99334.77;1695163;85;21003;-79
2022/02/12 01:24:11;;;;;;;44.07;25.30;;;;;;;-0.03;100.00;99334.77;1694414;85;21043;-79
2022/02/12 01:26:38;;;;;;;45.27;25.73;;;;;;;-0.05;100.00;99327.40;1670942;85;21022;-78
2022/02/12 01:29:05;;;;;;;46.77;24.93;;;;;;;-0.07;100.00;99329.30;1693863;85;21112;-78
2022/02/12 01:31:33;;;;;;;43.93;24.70;;;;;;;-0.08;100.00;99323.16;1694847;83;21007;-79
2022/02/12 01:34:00;;;;;;;43.63;24.47;;;;;;;-0.07;100.00;99318.67;1733279;83;21072;-79
2022/02/12 01:36:27;;;;;;;47.83;25.43;;;;;;;-0.06;100.00;99315.89;1733410;83;21009;-79
2022/02/12 01:38:54;;;;;;;48.33;26.43;;;;;;;-0.04;100.00;99313.13;1733243;83;21038;-78
2022/02/12 01:41:21;;;;;;;47.30;26.10;;;;;;;-0.02;100.00;99306.73;1734779;82;21473;-78
2022/02/12 01:43:48;;;;;;;49.07;27.97;;;;;;;0.00;100.00;99311.94;1740778;82;21021;-79
2022/02/12 01:46:15;;;;;;;45.77;27.23;;;;;;;0.02;100.00;99316.64;1740751;82;21010;-79
2022/02/12 01:48:43;;;;;;;47.37;28.30;;;;;;;0.05;100.00;99318.20;1740897;82;21069;-79
2022/02/12 01:51:10;;;;;;;45.03;27.33;;;;;;;0.05;100.00;99318.20;1740596;82;21033;-78
2022/02/12 01:53:37;;;;;;;46.83;27.40;;;;;;;0.05;100.00;99315.05;1740819;82;21062;-78
2022/02/12 01:56:05;;;;;;;47.93;29.67;;;;;;;0.06;100.00;99323.39;1710207;82;21058;-79
2022/02/12 01:58:32;;;;;;;45.00;27.13;;;;;;;0.08;100.00;99319.29;1740416;82;21100;-80
2022/02/12 02:00:59;;;;;;;47.37;27.90;;;;;;;0.10;100.00;99320.01;1740517;82;21508;-80
2022/02/12 02:03:26;;;;;;;45.30;28.07;;;;;;;0.12;100.00;99313.59;1740557;82;21015;-79
2022/02/12 02:05:55;;;;;;;47.17;27.50;;;;;;;0.13;100.00;99307.81;1740663;82;21006;-80
2022/02/12 02:08:22;;;;;;;43.53;26.00;;;;;;;0.14;100.00;99315.67;1740467;82;21073;-79
2022/02/12 02:10:52;;;;;;;43.27;26.57;;;;;;;0.14;100.00;99313.47;1740682;82;21056;-80
2022/02/12 02:13:27;;;;;;;44.43;26.67;;;;;;;0.13;100.00;99305.98;1740766;82;21014;-78
2022/02/12 02:15:54;;;;;;;41.10;25.53;;;;;;;0.13;100.00;99307.81;1740719;82;21010;-79
2022/02/12 02:18:22;;;;;;;45.30;26.23;;;;;;;0.13;100.00;99307.81;1740436;82;21030;-80
2022/02/12 02:20:51;;;;;;;41.73;25.17;;;;;;;0.10;100.00;99304.06;1740807;82;21036;-79
2022/02/12 02:23:20;;;;;;;43.00;26.07;;;;;;;0.09;100.00;99309.87;1740455;82;21018;-78
2022/02/12 02:25:46;;;;;;;41.17;25.00;;;;;;;0.09;100.00;99313.86;1709987;82;21005;-79
2022/02/12 02:28:13;;;;;;;41.73;24.87;;;;;;;0.10;100.00;99314.20;1740657;82;21047;-77
2022/02/12 02:30:40;;;;;;;41.07;25.67;;;;;;;0.13;100.00;99306.48;1740717;82;21080;-79
2022/02/12 02:33:08;;;;;;;42.43;26.20;;;;;;;0.13;100.00;99304.66;1740704;82;21037;-79
2022/02/12 02:35:36;;;;;;;39.50;24.90;;;;;;;0.14;100.00;99306.36;1740836;82;21026;-80
2022/02/12 02:38:07;;;;;;;42.57;25.93;;;;;;;0.15;100.00;99311.19;1740730;82;21069;-79
2022/02/12 02:40:35;;;;;;;39.30;24.70;;;;;;;0.17;100.00;99309.25;1740643;82;21464;-79
2022/02/12 02:43:02;;;;;;;43.03;25.37;;;;;;;0.20;100.00;99298.87;1740699;82;22231;-79
2022/02/12 02:45:30;;;;;;;40.67;25.27;;;;;;;0.22;100.00;99302.24;1740744;82;21042;-80
2022/02/12 02:47:59;;;;;;;40.53;25.30;;;;;;;0.24;100.00;99301.14;1740679;82;21033;-80
2022/02/12 02:56:00;;;;;;;41.63;25.77;;;;;;;0.26;100.00;99286.39;1740552;82;21006;-79
2022/02/12 02:58:31;;;;;;;59.60;33.90;;;;;;;0.26;100.00;99282.41;1740724;82;20986;-79
2022/02/12 03:00:58;;;;;;;59.70;35.10;;;;;;;0.26;100.00;99281.91;1708413;84;21033;-80
2022/02/12 03:03:25;;;;;;;56.37;32.80;;;;;;;0.28;100.00;99282.63;1708732;84;21010;-80
2022/02/12 03:05:52;;;;;;;54.47;31.70;;;;;;;0.29;100.00;99286.98;1708497;84;21105;-79
2022/02/12 03:08:19;;;;;;;56.87;33.17;;;;;;;0.31;100.00;99282.88;1708375;84;20998;-79
2022/02/12 03:10:45;;;;;;;54.87;33.73;;;;;;;0.33;100.00;99287.09;1703564;84;21075;-80
2022/02/12 03:13:12;;;;;;;54.57;32.37;;;;;;;0.36;100.00;99290.84;1669779;86;21062;-79
2022/02/12 03:15:40;;;;;;;52.93;33.07;;;;;;;0.37;100.00;99281.91;1657413;87;21091;-80
2022/02/12 03:18:07;;;;;;;52.83;32.10;;;;;;;0.38;100.00;99283.58;1669750;86;21492;-80
2022/02/12 03:20:34;;;;;;;49.17;31.37;;;;;;;0.37;100.00;99289.88;1657637;87;21055;-79
2022/02/12 03:23:02;;;;;;;50.63;30.47;;;;;;;0.37;100.00;99287.23;1669717;86;21121;-80
2022/02/12 03:25:28;;;;;;;55.33;33.17;;;;;;;0.38;100.00;99290.72;1657498;87;21648;-80
2022/02/12 03:30:28;;;;;;;58.03;34.50;;;;;;;0.40;100.00;99280.80;1631135;88;21151;-80
2022/02/12 03:32:55;;;;;;;58.97;35.17;;;;;;;0.43;100.00;99273.91;1626416;88;21035;-80
2022/02/12 03:35:22;;;;;;;58.80;36.03;;;;;;;0.44;100.00;99260.95;1660765;86;21058;-78
2022/02/12 03:37:50;;;;;;;56.50;33.53;;;;;;;0.46;100.00;99256.38;1660625;86;21062;-80
2022/02/12 03:40:18;;;;;;;53.43;33.30;;;;;;;0.47;100.00;99254.05;1660423;86;21081;-79
2022/02/12 03:42:45;;;;;;;52.60;32.63;;;;;;;0.49;100.00;99254.77;1660632;86;21055;-80
2022/02/12 03:45:11;;;;;;;53.70;33.60;;;;;;;0.50;100.00;99248.49;1660804;86;21062;-79
2022/02/12 03:47:38;;;;;;;51.33;32.77;;;;;;;0.50;100.00;99240.52;1660896;86;21007;-80
2022/02/12 03:50:05;;;;;;;54.83;34.57;;;;;;;0.52;100.00;99233.73;1660781;86;21134;-80
2022/02/12 03:52:33;;;;;;;55.57;35.47;;;;;;;0.53;100.00;99236.73;1660950;86;21552;-80
2022/02/12 03:54:59;;;;;;;57.77;36.50;;;;;;;0.54;100.00;99235.78;1660609;86;20999;-79
2022/02/12 03:57:26;;;;;;;54.77;33.83;;;;;;;0.54;100.00;99231.30;1665068;85;21031;-79
2022/02/12 03:59:52;;;;;;;56.50;33.23;;;;;;;0.54;100.00;99230.46;1670815;86;21526;-79
2022/02/12 04:02:19;;;;;;;57.23;33.53;;;;;;;0.54;100.00;99231.30;1670993;86;21028;-79
2022/02/12 04:04:53;;;;;;;53.37;33.60;;;;;;;0.53;100.00;99225.64;1671037;86;21031;-79
2022/02/12 04:07:19;;;;;;;52.63;33.17;;;;;;;0.53;100.00;99219.45;1671122;86;20980;-80
2022/02/12 04:09:47;;;;;;;57.20;33.33;;;;;;;0.50;100.00;99209.09;1669712;85;21493;-79
2022/02/12 04:12:13;;;;;;;53.40;31.93;;;;;;;0.49;100.00;99210.05;1666732;86;21130;-80
2022/02/12 04:14:41;;;;;;;53.30;32.83;;;;;;;0.46;100.00;99218.27;1666469;86;21082;-79
2022/02/12 04:17:08;;;;;;;52.80;31.37;;;;;;;0.44;100.00;99227.70;1666686;86;21051;-79
2022/02/12 04:19:35;;;;;;;55.27;31.27;;;;;;;0.43;100.00;99222.04;1666734;86;21047;-80
2022/02/12 04:22:03;;;;;;;51.47;31.40;;;;;;;0.42;100.00;99213.69;1666740;86;21054;-80
2022/02/12 04:24:30;;;;;;;50.83;31.00;;;;;;;0.42;100.00;99213.69;1666659;86;21035;-80
2022/02/12 04:26:58;;;;;;;49.93;31.90;;;;;;;0.43;100.00;99207.91;1666695;86;21110;-80
2022/02/12 04:29:24;;;;;;;48.67;30.13;;;;;;;0.38;100.00;99210.44;1695340;82;21037;-79
2022/02/12 04:31:51;;;;;;;44.97;28.60;;;;;;;0.38;100.00;99211.77;1741269;82;21210;-79
2022/02/12 04:34:19;;;;;;;46.47;27.53;;;;;;;0.37;100.00;99202.58;1741321;82;21501;-77
2022/02/12 04:36:47;;;;;;;42.87;26.67;;;;;;;0.37;100.00;99210.09;1741290;82;21034;-79
2022/02/12 04:39:15;;;;;;;44.60;28.20;;;;;;;0.37;100.00;99205.24;1741144;82;21539;-79
2022/02/12 04:41:42;;;;;;;45.87;27.87;;;;;;;0.37;100.00;99201.25;1738196;82;21074;-79
2022/02/12 04:44:08;;;;;;;47.57;31.33;;;;;;;0.34;100.00;99197.05;1732622;82;21034;-79
2022/02/12 04:46:35;;;;;;;43.47;28.77;;;;;;;0.35;100.00;99189.44;1732951;83;21022;-79
2022/02/12 04:49:02;;;;;;;44.57;29.97;;;;;;;0.33;100.00;99188.70;1733018;83;20998;-79
2022/02/12 04:51:29;;;;;;;43.07;26.87;;;;;;;0.33;100.00;99190.02;1732623;83;21038;-80
2022/02/12 04:53:57;;;;;;;47.77;28.53;;;;;;;0.33;100.00;99186.53;1732905;83;21005;-79
2022/02/12 04:56:25;;;;;;;56.53;30.97;;;;;;;0.33;100.00;99182.05;1732620;83;21030;-79
2022/02/12 04:58:52;;;;;;;68.17;34.63;;;;;;;0.32;100.00;99181.70;1732284;81;21061;-79
2022/02/12 05:01:23;;;;;;;67.23;33.30;;;;;;;0.34;100.00;99181.58;1732884;82;21015;-79
2022/02/12 05:03:56;;;;;;;56.50;30.90;;;;;;;0.35;100.00;99180.59;1732978;83;21078;-79
2022/02/12 05:06:23;;;;;;;56.83;30.53;;;;;;;0.38;100.00;99176.36;1733231;83;21010;-79
2022/02/12 05:08:51;;;;;;;54.83;29.43;;;;;;;0.39;100.00;99168.75;1733353;83;21002;-79
2022/02/12 05:11:18;;;;;;;56.00;29.20;;;;;;;0.41;100.00;99166.80;1733738;83;21006;-80
2022/02/12 05:13:44;;;;;;;65.83;32.87;;;;;;;0.45;100.00;99166.06;1733695;83;21017;-80
2022/02/12 05:16:12;;;;;;;56.10;29.87;;;;;;;0.46;100.00;99165.07;1733983;83;21069;-80
2022/02/12 05:18:39;;;;;;;50.07;27.97;;;;;;;0.50;100.00;99170.52;1734622;83;21005;-80
2022/02/12 05:21:06;;;;;;;119.43;54.37;;;;;;;0.53;100.00;99167.58;1733164;83;21065;-79
2022/02/12 05:23:33;;;;;;;571.30;236.67;;;;;;;0.57;100.00;99157.05;1732542;83;21041;-80
2022/02/12 05:26:00;;;;;;;490.40;192.40;;;;;;;0.62;100.00;99151.33;1732539;83;21140;-79
2022/02/12 05:28:28;;;;;;;207.80;82.73;;;;;;;0.68;100.00;99152.16;1733452;83;21005;-80
2022/02/12 05:30:55;;;;;;;61.43;32.87;;;;;;;0.73;100.00;99149.95;1733212;83;21018;-80
2022/02/12 05:33:22;;;;;;;45.87;26.60;;;;;;;0.80;100.00;99146.26;1733337;83;21033;-80
2022/02/12 05:35:49;;;;;;;43.30;25.40;;;;;;;0.84;100.00;99147.21;1733836;83;21026;-79
2022/02/12 05:38:17;;;;;;;76.40;35.40;;;;;;;0.89;100.00;99141.50;1733850;83;21046;-80
2022/02/12 05:40:44;;;;;;;104.10;42.47;;;;;;;0.93;100.00;99137.09;1733784;83;21093;-79
2022/02/12 05:43:11;;;;;;;237.80;90.90;;;;;;;0.98;100.00;99130.06;1700255;83;21022;-78
2022/02/12 05:45:41;;;;;;;194.33;90.10;;;;;;;1.02;100.00;99127.48;1732893;83;21633;-78
2022/02/12 05:48:07;;;;;;;111.23;60.37;;;;;;;1.06;100.00;99114.28;1732752;83;21038;-78
2022/02/12 05:50:34;;;;;;;61.90;39.13;;;;;;;1.10;100.00;99114.86;1732608;83;21058;-77
2022/02/12 05:53:00;;;;;;;41.30;24.67;;;;;;;1.11;100.00;99107.20;1732785;83;21002;-78
2022/02/12 05:55:27;;;;;;;37.03;22.33;;;;;;;1.13;100.00;99103.45;1732440;81;21511;-78
2022/02/12 05:58:00;;;;;;;108.30;49.40;;;;;;;1.19;100.00;99103.86;1733024;83;21026;-77
2022/02/12 06:00:27;;;;;;;290.12;102.45;;;;;;;1.22;100.00;99099.61;1733436;83;21027;-80
2022/02/12 06:02:54;;;;;;;334.43;113.60;;;;;;;1.26;100.00;99098.38;1733082;83;21050;-80
2022/02/12 06:05:21;;;;;;;309.23;101.77;;;;;;;1.26;100.00;99095.72;1733155;83;20994;-80
2022/02/12 06:07:49;;;;;;;270.60;98.37;;;;;;;1.26;100.00;99093.06;1732889;83;21543;-81
2022/02/12 06:10:16;;;;;;;268.67;115.53;;;;;;;1.26;100.00;99093.89;1733351;83;20982;-78
2022/02/12 06:12:44;;;;;;;56.80;33.30;;;;;;;1.30;100.00;99091.30;1732960;83;21109;-82
2022/02/12 06:15:12;;;;;;;39.20;24.03;;;;;;;1.32;100.00;99091.17;1733184;83;21073;-79
2022/02/12 06:17:40;;;;;;;38.23;22.93;;;;;;;1.30;100.00;99083.31;1732677;82;21007;-78
2022/02/12 06:20:09;;;;;;;44.50;26.97;;;;;;;1.30;100.00;99082.48;1732596;83;21050;-77
2022/02/12 06:22:36;;;;;;;47.93;27.23;;;;;;;1.32;100.00;99080.52;1732221;83;21093;-75
2022/02/12 06:25:03;;;;;;;50.40;28.60;;;;;;;1.33;100.00;99078.22;1732947;83;21048;-74
2022/02/12 06:27:30;;;;;;;55.53;30.00;;;;;;;1.35;100.00;99072.73;1732152;83;21025;-76
2022/02/12 06:29:57;;;;;;;52.57;28.23;;;;;;;1.35;100.00;99068.27;1733378;82;21499;-79
2022/02/12 06:32:24;;;;;;;45.03;27.37;;;;;;;1.37;100.00;99072.13;1733524;83;21067;-80
2022/02/12 06:34:55;;;;;;;44.23;25.87;;;;;;;1.40;100.00;99060.71;1732603;81;20990;-77
2022/02/12 06:37:20;;;;;;;40.37;23.90;;;;;;;1.42;100.00;99060.08;1732144;83;21504;-74
2022/02/12 06:39:47;;;;;;;42.57;24.60;;;;;;;1.45;100.00;99058.48;1732472;83;21042;-77
2022/02/12 06:42:14;;;;;;;44.90;26.50;;;;;;;1.46;100.00;99055.32;1732271;83;21070;-77
2022/02/12 06:44:41;;;;;;;50.50;27.87;;;;;;;1.48;100.00;99052.02;1732030;83;21014;-75
2022/02/12 06:47:08;;;;;;;40.60;24.50;;;;;;;1.50;100.00;99052.23;1732075;83;21102;-76
2022/02/12 06:49:35;;;;;;;46.97;27.77;;;;;;;1.53;100.00;99045.80;1732009;83;21006;-76
2022/02/12 06:52:03;;;;;;;41.40;25.07;;;;;;;1.56;100.00;99049.53;1732180;83;21129;-76
2022/02/12 06:54:30;;;;;;;43.30;25.50;;;;;;;1.59;100.00;99041.73;1732312;83;21488;-77
2022/02/12 06:56:58;;;;;;;48.03;29.50;;;;;;;1.61;100.00;99042.44;1731854;83;21540;-78
2022/02/12 06:59:25;;;;;;;63.57;41.20;;;;;;;1.64;100.00;99043.50;1731987;83;21010;-77
2022/02/12 07:01:51;;;;;;;59.53;39.73;;;;;;;1.68;100.00;99047.56;1731745;83;21105;-75
2022/02/12 07:04:18;;;;;;;64.67;38.53;;;;;;;1.69;100.00;99038.09;1731638;83;21010;-73
2022/02/12 07:06:44;;;;;;;53.93;32.53;;;;;;;1.74;100.00;99031.53;1731794;83;21030;-76
2022/02/12 07:09:12;;;;;;;48.50;29.67;;;;;;;1.77;100.00;99028.56;1731853;83;21081;-76
2022/02/12 07:11:39;;;;;;;44.40;27.00;;;;;;;1.83;100.00;99032.02;1732589;83;21556;-75
2022/02/12 07:14:06;;;;;;;43.23;27.80;;;;;;;1.84;100.00;99025.22;1733078;83;21073;-80
2022/02/12 07:16:33;;;;;;;59.97;34.07;;;;;;;1.86;100.00;99013.92;1733225;83;21089;-76
2022/02/12 07:19:00;;;;;;;49.60;29.70;;;;;;;1.90;100.00;99020.64;1731983;83;21050;-77
2022/02/12 07:21:27;;;;;;;44.70;28.37;;;;;;;1.93;100.00;99021.34;1731863;83;21095;-75
2022/02/12 07:23:54;;;;;;;44.77;27.53;;;;;;;1.94;100.00;99024.37;1732324;83;21061;-80
2022/02/12 07:26:28;;;;;;;43.13;26.90;;;;;;;1.92;100.00;99017.01;1732594;83;21042;-77
2022/02/12 07:28:57;;;;;;;46.60;28.27;;;;;;;1.93;100.00;99013.34;1732828;83;21062;-78
2022/02/12 07:31:23;;;;;;;47.70;26.93;;;;;;;1.95;100.00;99008.70;1732958;83;21007;-75
2022/02/12 07:33:50;;;;;;;48.37;28.43;;;;;;;1.98;100.00;99004.43;1732617;83;21007;-75
2022/02/12 07:36:17;;;;;;;46.00;26.87;;;;;;;1.98;100.00;99009.27;1732179;83;21053;-75
2022/02/12 07:38:45;;;;;;;45.67;27.50;;;;;;;2.01;100.00;99003.66;1732177;83;21054;-76
2022/02/12 07:41:17;;;;;;;44.10;28.20;;;;;;;2.05;100.00;98997.08;1732748;82;21053;-75
2022/02/12 07:43:40;;;;;;;44.87;28.00;;;;;;;2.06;100.00;98993.41;1727039;83;20970;-76
2022/02/12 07:46:08;;;;;;;46.70;28.60;;;;;;;2.06;100.00;98993.41;1731406;83;21074;-76
2022/02/12 07:48:36;;;;;;;45.73;29.03;;;;;;;2.08;100.00;98989.27;1731696;83;21042;-75
2022/02/12 07:51:02;;;;;;;48.57;29.60;;;;;;;2.08;100.00;98982.60;1732142;83;21089;-77
2022/02/12 07:53:29;;;;;;;48.17;29.30;;;;;;;2.07;100.00;98983.11;1732330;83;21022;-74
2022/02/12 07:55:56;;;;;;;48.90;29.23;;;;;;;2.05;100.00;98991.74;1732496;83;21034;-75
2022/02/12 07:58:24;;;;;;;50.20;31.07;;;;;;;2.02;100.00;98995.16;1732300;83;21121;-76
2022/02/12 08:00:50;;;;;;;45.53;28.90;;;;;;;2.02;100.00;98991.16;1740742;81;20999;-75
2022/02/12 08:03:17;;;;;;;44.67;28.07;;;;;;;2.01;100.00;99002.32;1749178;81;20973;-74
2022/02/12 08:05:44;;;;;;;47.27;29.13;;;;;;;1.99;100.00;98994.13;1732453;83;21041;-75
2022/02/12 08:08:11;;;;;;;47.43;28.33;;;;;;;2.00;100.00;98998.46;1732625;83;21062;-75
2022/02/12 08:13:24;;;;;;;43.33;26.33;;;;;;;2.01;100.00;98992.98;1755387;82;21179;-75
2022/02/12 08:15:51;;;;;;;47.13;28.70;;;;;;;2.01;100.00;99002.32;1755777;82;21032;-75
2022/02/12 08:18:18;;;;;;;46.63;29.07;;;;;;;2.01;100.00;99006.32;1755784;82;21052;-77
2022/02/12 08:20:45;;;;;;;47.53;29.20;;;;;;;2.04;100.00;99005.22;1755650;82;21502;-74
2022/02/12 08:23:12;;;;;;;42.03;25.87;;;;;;;2.06;100.00;99006.74;1755733;82;21059;-76
2022/02/12 08:25:38;;;;;;;44.13;25.43;;;;;;;2.09;100.00;99010.97;1755688;82;21640;-75
2022/02/12 08:28:05;;;;;;;40.80;25.77;;;;;;;2.09;100.00;99008.30;1755634;82;21001;-74
2022/02/12 08:30:32;;;;;;;43.93;25.93;;;;;;;2.11;100.00;99017.46;1755321;82;21044;-73
2022/02/12 08:33:01;;;;;;;38.33;24.53;;;;;;;2.11;100.00;99008.99;1755486;82;21032;-77
2022/02/12 08:35:28;;;;;;;44.30;28.30;;;;;;;2.14;100.00;99018.52;1755538;82;20996;-75
2022/02/12 08:37:55;;;;;;;42.03;26.33;;;;;;;2.16;100.00;99024.55;1755660;82;21072;-74
2022/02/12 08:40:23;;;;;;;42.83;25.60;;;;;;;2.17;100.00;99022.24;1755545;82;21103;-75
2022/02/12 08:42:50;;;;;;;37.30;24.13;;;;;;;2.17;100.00;99026.25;1737634;82;21062;-74
2022/02/12 08:45:17;;;;;;;34.87;21.40;;;;;;;2.14;100.00;99011.35;1732879;83;21066;-75
2022/02/12 08:47:44;;;;;;;35.67;22.30;;;;;;;2.13;100.00;99019.52;1732701;83;21018;-74
2022/02/12 08:50:11;;;;;;;35.30;22.67;;;;;;;2.12;100.00;99016.49;1732521;83;21049;-72
2022/02/12 08:52:41;;;;;;;37.67;23.83;;;;;;;2.11;100.00;99000.99;1732470;83;21029;-74
2022/02/12 08:55:09;;;;;;;37.63;24.07;;;;;;;2.09;100.00;99007.80;1732645;83;21065;-76
2022/02/12 08:57:36;;;;;;;37.00;23.30;;;;;;;2.06;100.00;99003.24;1732695;83;21085;-73
2022/02/12 09:00:08;;;;;;;41.03;24.80;;;;;;;2.09;100.00;99003.80;1734029;81;21042;-78
2022/02/12 09:02:35;;;;;;;47.93;29.90;;;;;;;2.12;100.00;98991.98;1764349;81;21043;-75
2022/02/12 09:05:03;;;;;;;41.57;26.87;;;;;;;2.13;100.00;98981.69;1765081;81;21074;-75
2022/02/12 09:07:29;;;;;;;44.50;29.57;;;;;;;2.16;100.00;98969.88;1765521;81;20980;-75
2022/02/12 09:10:05;;;;;;;50.20;34.43;;;;;;;2.18;100.00;98958.09;1765658;81;21056;-80
2022/02/12 09:12:34;;;;;;;45.87;32.53;;;;;;;2.20;100.00;98953.45;1764058;81;21525;-74
2022/02/12 09:15:03;;;;;;;40.20;25.67;;;;;;;2.26;100.00;98973.37;1763240;81;21123;-76
2022/02/12 09:17:30;;;;;;;44.60;27.47;;;;;;;2.25;100.00;98977.04;1764618;81;20980;-80
2022/02/12 09:19:58;;;;;;;46.80;27.47;;;;;;;2.24;100.00;98978.84;1764516;81;21007;-77
2022/02/12 09:22:26;;;;;;;87.17;39.17;;;;;;;2.29;100.00;98970.42;1764712;81;21047;-86
2022/02/12 09:24:53;;;;;;;98.40;44.00;;;;;;;2.27;100.00;98977.23;1765310;81;21049;-79
2022/02/12 09:27:22;;;;;;;72.00;35.20;;;;;;;2.25;100.00;98967.20;1763681;81;21019;-78
2022/02/12 09:29:54;;;;;;;64.20;33.00;;;;;;;2.26;100.00;98963.53;1763721;81;21074;-75
2022/02/12 09:32:19;;;;;;;102.57;41.90;;;;;;;2.28;100.00;98960.72;1763232;81;21043;-77
2022/02/12 09:34:46;;;;;;;84.17;36.23;;;;;;;2.30;100.00;98973.42;1763271;81;21513;-74
2022/02/12 09:37:13;;;;;;;66.47;31.73;;;;;;;2.32;100.00;98973.28;1763222;81;21024;-76
2022/02/12 09:39:40;;;;;;;47.13;28.47;;;;;;;2.32;100.00;98969.28;1763358;81;21035;-74
2022/02/12 09:42:10;;;;;;;46.13;27.57;;;;;;;2.34;100.00;98972.17;1747696;81;21475;-73
2022/02/12 09:44:41;;;;;;;49.13;29.60;;;;;;;2.37;100.00;98968.35;1696316;85;21047;-76
2022/02/12 09:47:40;;;;;;;43.20;28.17;;;;;;;2.38;100.00;98966.05;1696477;85;21161;-78
2022/02/12 09:50:07;;;;;;;47.40;28.70;;;;;;;2.38;100.00;98964.21;1696666;85;21041;-79
2022/02/12 09:52:34;;;;;;;54.43;33.30;;;;;;;2.36;100.00;98959.52;1696544;85;21096;-75
2022/02/12 09:55:02;;;;;;;47.70;28.47;;;;;;;2.36;100.00;98961.36;1696567;85;21341;-77
2022/02/12 09:57:29;;;;;;;50.43;30.33;;;;;;;2.38;100.00;98957.54;1696358;85;21051;-74
2022/02/12 10:00:03;;;;;;;44.23;27.57;;;;;;;2.40;100.00;98946.73;1696456;85;21498;-73
2022/02/12 10:02:32;;;;;;;52.07;30.60;;;;;;;2.43;100.00;98940.61;1666950;86;21078;-75
2022/02/12 10:05:29;;;;;;;48.00;29.03;;;;;;;2.44;100.00;98936.10;1666630;86;21049;-78
2022/02/12 10:08:07;;;;;;;45.03;28.73;;;;;;;2.47;100.00;98942.48;1666988;86;21086;-74
2022/02/12 10:10:36;;;;;;;41.77;28.10;;;;;;;2.52;100.00;98934.89;1666907;86;21627;-75
2022/02/12 10:13:19;;;;;;;46.53;29.67;;;;;;;2.58;100.00;98931.62;1664114;85;21062;-72
2022/02/12 10:15:56;;;;;;;52.83;31.62;;;;;;;2.65;100.00;98931.88;1616335;88;21546;-75
2022/02/12 10:18:25;;;;;;;70.77;38.47;;;;;;;2.64;100.00;98940.89;1622274;88;21085;-75
2022/02/12 10:20:56;;;;;;;59.10;39.27;;;;;;;2.65;100.00;98952.72;1528685;93;21206;-77
2022/02/12 10:23:28;;;;;;;43.00;29.17;;;;;;;2.68;100.00;98954.78;1519875;93;21027;-79
2022/02/12 10:26:07;;;;;;;39.60;25.70;;;;;;;2.66;100.00;98954.92;1513290;93;21059;-74
2022/02/12 10:28:36;;;;;;;38.87;26.47;;;;;;;2.64;100.00;98953.73;1520854;93;21569;-73
2022/02/12 10:31:03;;;;;;;40.10;26.37;;;;;;;2.61;100.00;98948.68;1524996;93;21035;-77
2022/02/12 10:33:41;;;;;;;38.10;25.40;;;;;;;2.58;100.00;98942.30;1529308;93;21585;-74
2022/02/12 10:36:15;;;;;;;40.70;26.07;;;;;;;2.60;100.00;98948.82;1454639;98;21219;-73
2022/02/12 10:38:50;;;;;;;41.63;26.63;;;;;;;2.61;100.00;98947.34;1419666;100;21142;-74
2022/02/12 10:41:19;;;;;;;41.47;26.10;;;;;;;2.62;100.00;98951.70;1362767;104;21078;-72
2022/02/12 10:43:49;;;;;;;42.57;27.60;;;;;;;2.61;100.00;98954.02;1365058;104;21130;-72
2022/02/12 10:46:16;;;;;;;36.57;23.97;;;;;;;2.62;100.00;98953.52;1376290;104;21099;-72
2022/02/12 10:48:43;;;;;;;38.53;25.67;;;;;;;2.61;100.00;98954.52;1365253;104;21222;-76
2022/02/12 10:51:15;;;;;;;38.13;25.40;;;;;;;2.62;100.00;98957.52;1366129;104;21715;-75
2022/02/12 10:54:02;;;;;;;40.07;25.47;;;;;;;2.66;100.00;98957.09;1360908;103;21688;-74
2022/02/12 10:56:53;;;;;;;33.83;22.13;;;;;;;2.68;100.00;98961.45;1364036;104;21673;-71
2022/02/12 10:59:22;;;;;;;35.50;22.70;;;;;;;2.68;100.00;98954.27;1376393;102;21313;-72
2022/02/12 11:01:50;;;;;;;37.83;22.77;;;;;;;2.68;100.00;98954.78;1402554;102;21102;-74
2022/02/12 11:04:17;;;;;;;34.20;22.00;;;;;;;2.69;100.00;98951.11;1420006;100;21125;-73
2022/02/12 11:06:46;;;;;;;36.93;22.13;;;;;;;2.68;100.00;98954.78;1411422;101;21576;-72
2022/02/12 11:09:18;;;;;;;34.93;23.43;;;;;;;2.68;100.00;98964.13;1405414;102;21238;-72
2022/02/12 11:11:45;;;;;;;38.77;23.23;;;;;;;2.66;100.00;98966.43;1405833;102;21121;-73
2022/02/12 11:14:17;;;;;;;36.70;22.63;;;;;;;2.66;100.00;98970.94;1405489;102;21137;-71
2022/02/12 11:16:44;;;;;;;38.47;24.43;;;;;;;2.68;100.00;98972.13;1408924;99;21173;-73
2022/02/12 11:19:13;;;;;;;37.50;24.43;;;;;;;2.70;100.00;98968.31;1469705;96;21270;-75
2022/02/12 11:21:40;;;;;;;32.83;21.10;;;;;;;2.75;100.00;98972.72;1490368;96;21026;-74
2022/02/12 11:24:14;;;;;;;32.33;20.90;;;;;;;2.78;100.00;98978.24;1490291;96;21126;-74
2022/02/12 11:26:44;;;;;;;33.47;22.40;;;;;;;2.78;100.00;98986.25;1507427;94;21623;-74
2022/02/12 11:29:33;;;;;;;33.70;20.53;;;;;;;2.75;100.00;98983.39;1479489;97;21123;-75
2022/02/12 11:32:22;;;;;;;30.50;19.73;;;;;;;2.74;100.00;98992.38;1479514;92;21078;-73